Main page
METAR-TAF:

METAR-TAF

Airports :

Baia Mare, Romania

Baia Mare Airport

latitude: 47-40N, longitude: 023-35E, elevation: 218 m

Current weather observation

The report was made 23 minutes ago, at 07:30 UTC
Temperature
Pressure 1015 hPa

METAR: LRBM 170730Z AUTO /////KT //// VV002 ///// Q1015

Time: 09:53 (07:53 UTC)

Forecast

The report was made 17 hours and 53 minutes ago, at 14:00 UTC
Forecast valid from 16 at 15 UTC to 16 at 24 UTC
Wind 4 kt from variable directions
Visibility 10 km or more
Broken clouds at a height of 2000 ft
Becoming
from 16 at 19 UTC to 16 at 21 UTC
Visibility: 3000 m
Broken clouds at a height of 1000 ft
mist

TAF: LRBM 161400Z 1615/1624 VRB04KT 9999 BKN020 BECMG 1619/1621 3000 BR BKN010

Weather observations and forecasts of more than 4000 airports (METAR and TAF reports).

The available stations are represented by yellow and red dots on the map.

Hover mouse over dot to see the name of the station.

Then click to see weather observations and forecasts.

To change the map : click on the green buttons with a black cross to zoom in, on the green button with a dash to zoom out, or on the green arrows for adjacent maps.


METAR-TAF: